Time;durP1;ratioP1;P1;durP2;ratioP2;P2;SDS_P1;SDS_P2;PMS_P1;PMS_P2;Temp;Humidity;BMP_temperature;BMP_pressure;BME280_temperature;BME280_humidity;BME280_pressure;Samples;Min_cycle;Max_cycle;Signal;HPM_P1;HPM_P2
2023/10/18 00:02:30;;;;;;;8.20;5.80;;;;;;;8.20;100.00;101164.72;5226345;28;20029;-80
2023/10/18 00:05:05;;;;;;;9.37;6.77;;;;;;;8.22;100.00;101169.91;5243066;28;20540;-80
2023/10/18 00:07:37;;;;;;;7.73;5.97;;;;;;;7.93;100.00;101112.88;5227252;28;20509;-81
2023/10/18 00:10:09;;;;;;;10.73;6.33;;;;;;;7.97;100.00;101105.78;5226812;28;20060;-81
2023/10/18 00:12:41;;;;;;;8.53;6.90;;;;;;;7.89;100.00;101120.91;5227076;28;20175;-81
2023/10/18 00:15:12;;;;;;;11.70;6.43;;;;;;;8.01;100.00;101125.59;5227591;28;20037;-80
2023/10/18 00:17:44;;;;;;;10.67;6.40;;;;;;;8.06;100.00;101133.22;5225568;28;20056;-80
2023/10/18 00:20:16;;;;;;;8.43;6.47;;;;;;;8.19;100.00;101154.38;5227262;28;20030;-80
2023/10/18 00:22:47;;;;;;;9.63;7.43;;;;;;;8.20;100.00;101156.06;5226065;28;20105;-80
2023/10/18 00:25:21;;;;;;;13.33;6.43;;;;;;;8.03;100.00;101151.63;5226389;28;20029;-80
2023/10/18 00:27:53;;;;;;;10.55;6.65;;;;;;;8.19;100.00;101149.16;5227622;28;20356;-80
2023/10/18 00:30:27;;;;;;;8.37;6.90;;;;;;;8.18;100.00;101163.97;5226065;28;20032;-80
2023/10/18 00:32:58;;;;;;;6.28;5.53;;;;;;;7.90;100.00;101102.59;5226448;28;20067;-80
2023/10/18 00:35:32;;;;;;;10.47;6.20;;;;;;;7.93;100.00;101102.44;5226844;28;20037;-80
2023/10/18 00:38:04;;;;;;;10.93;7.03;;;;;;;8.05;100.00;101113.25;5226264;28;20108;-80
2023/10/18 00:40:36;;;;;;;9.30;6.70;;;;;;;8.01;100.00;101129.97;5226503;28;20023;-80
2023/10/18 00:45:51;;;;;;;11.57;6.40;;;;;;;8.02;100.00;101116.00;5225680;28;20072;-80
2023/10/18 00:48:24;;;;;;;9.63;6.07;;;;;;;7.89;100.00;101103.50;5227571;28;20017;-80
2023/10/18 00:50:58;;;;;;;10.40;6.73;;;;;;;8.11;100.00;101133.84;5226430;28;20036;-80
2023/10/18 00:53:33;;;;;;;9.73;6.70;;;;;;;7.80;100.00;101096.09;5226637;28;20397;-80
2023/10/18 00:56:05;;;;;;;7.50;6.03;;;;;;;7.80;100.00;101080.44;5227238;28;20029;-80
2023/10/18 00:58:39;;;;;;;11.50;6.57;;;;;;;8.09;100.00;101131.31;5226840;28;20362;-80
2023/10/18 01:01:11;;;;;;;8.98;6.57;;;;;;;8.17;100.00;101141.38;5240878;28;20389;-80
2023/10/18 01:03:46;;;;;;;8.77;7.10;;;;;;;7.85;100.00;101065.44;5226376;28;20029;-80
2023/10/18 01:06:21;;;;;;;9.13;6.23;;;;;;;7.92;100.00;101084.28;5226975;28;20801;-80
2023/10/18 01:08:52;;;;;;;8.77;6.88;;;;;;;7.98;100.00;101079.63;5226446;28;20489;-80
2023/10/18 01:11:28;;;;;;;8.80;6.70;;;;;;;7.87;100.00;101068.84;5226537;28;20040;-80
2023/10/18 01:14:00;;;;;;;9.00;6.57;;;;;;;7.80;100.00;101052.59;5226268;28;20508;-80
2023/10/18 01:16:35;;;;;;;9.33;5.90;;;;;;;7.95;100.00;101065.88;5224578;28;20026;-80
2023/10/18 01:19:08;;;;;;;10.23;6.77;;;;;;;7.87;100.00;101059.22;5224823;28;20029;-80
2023/10/18 01:21:45;;;;;;;8.23;7.17;;;;;;;7.73;100.00;101041.59;5225296;28;20116;-80
2023/10/18 01:24:18;;;;;;;9.83;7.27;;;;;;;8.02;100.00;101089.91;5225624;28;20022;-79
2023/10/18 01:26:50;;;;;;;9.17;6.50;;;;;;;7.74;100.00;101040.69;5226989;28;20087;-79
2023/10/18 01:29:22;;;;;;;10.47;6.80;;;;;;;7.66;100.00;101037.59;5225072;28;20060;-80
2023/10/18 01:31:55;;;;;;;9.50;7.20;;;;;;;7.80;100.00;101049.16;5225180;28;20029;-80
2023/10/18 01:34:26;;;;;;;12.47;7.50;;;;;;;8.01;100.00;101083.00;5226442;28;20029;-79
2023/10/18 01:36:59;;;;;;;8.80;6.53;;;;;;;7.72;100.00;101036.44;5225664;28;20049;-79
2023/10/18 01:39:31;;;;;;;9.83;7.07;;;;;;;7.59;100.00;101017.91;5226445;28;20033;-79
2023/10/18 01:42:06;;;;;;;9.10;6.63;;;;;;;7.53;100.00;101016.41;5226146;28;20095;-80
2023/10/18 01:44:38;;;;;;;7.50;6.10;;;;;;;7.75;100.00;101025.88;5226563;28;20017;-79
2023/10/18 01:47:12;;;;;;;7.83;6.07;;;;;;;7.87;100.00;101056.63;5224431;28;20394;-80
2023/10/18 01:49:50;;;;;;;8.53;6.20;;;;;;;7.59;100.00;101002.28;5242676;28;20026;-80
2023/10/18 01:52:22;;;;;;;7.63;6.47;;;;;;;7.82;100.00;101047.34;5229512;28;20393;-80
2023/10/18 01:54:54;;;;;;;8.73;6.10;;;;;;;7.79;100.00;101034.41;5230910;28;20049;-80
2023/10/18 02:11:22;;;;;;;10.40;6.70;;;;;;;7.69;100.00;101011.38;5210246;28;20053;-79
2023/10/18 02:13:54;;;;;;;15.30;7.17;;;;;;;7.67;100.00;100996.72;5229684;28;20481;-80
2023/10/18 02:16:25;;;;;;;11.23;7.13;;;;;;;7.46;100.00;100963.72;5226668;28;20139;-80
2023/10/18 02:18:57;;;;;;;7.53;5.93;;;;;;;7.91;100.00;101025.19;5229595;28;20033;-80
2023/10/18 02:21:29;;;;;;;9.67;6.97;;;;;;;7.61;100.00;100987.41;5228570;28;20025;-80
2023/10/18 02:24:00;;;;;;;7.77;5.53;;;;;;;7.59;100.00;100971.81;5244683;28;20048;-80
2023/10/18 02:26:32;;;;;;;9.40;6.83;;;;;;;7.62;100.00;100984.75;5229267;28;20032;-80
2023/10/18 02:29:12;;;;;;;14.27;7.00;;;;;;;7.82;100.00;101027.31;5229439;28;20512;-81
2023/10/18 02:31:43;;;;;;;11.43;5.80;;;;;;;7.60;100.00;100985.72;5227809;28;20029;-81
2023/10/18 02:34:14;;;;;;;12.30;6.27;;;;;;;7.59;100.00;100977.03;5228794;28;20032;-81
2023/10/18 02:36:48;;;;;;;8.97;6.60;;;;;;;7.66;100.00;100998.50;5229022;28;20041;-80
2023/10/18 02:39:32;;;;;;;8.40;6.10;;;;;;;7.45;100.00;100958.59;5228384;28;20123;-80
2023/10/18 02:42:04;;;;;;;8.40;5.97;;;;;;;7.49;100.00;100953.16;5229214;28;20025;-81
2023/10/18 02:44:37;;;;;;;8.93;6.77;;;;;;;7.44;100.00;100947.31;5229258;28;20621;-80
2023/10/18 02:47:22;;;;;;;9.90;6.17;;;;;;;7.38;100.00;100951.03;5228241;28;20031;-80
2023/10/18 02:49:53;;;;;;;10.20;6.50;;;;;;;7.56;100.00;100971.13;5228880;28;20056;-80
2023/10/18 02:52:30;;;;;;;10.87;6.37;;;;;;;7.42;100.00;100945.72;5242211;28;20029;-80
2023/10/18 02:55:09;;;;;;;9.82;6.00;;;;;;;7.67;100.00;100976.72;5242604;28;20271;-80
2023/10/18 02:57:46;;;;;;;10.20;7.07;;;;;;;7.45;100.00;100935.13;5242589;28;20059;-80
2023/10/18 03:00:17;;;;;;;8.83;6.87;;;;;;;7.56;100.00;100950.25;5237649;28;20029;-80
2023/10/18 03:02:49;;;;;;;9.87;6.50;;;;;;;7.79;100.00;100995.31;5238414;28;20117;-80
2023/10/18 03:05:20;;;;;;;9.87;6.40;;;;;;;7.57;100.00;100944.16;5230757;28;20044;-80
2023/10/18 03:07:51;;;;;;;7.43;6.57;;;;;;;7.53;100.00;100947.81;5229894;28;20076;-80
2023/10/18 03:10:32;;;;;;;12.80;7.80;;;;;;;7.47;100.00;100939.34;5228043;28;20087;-80
2023/10/18 03:13:11;;;;;;;9.97;6.13;;;;;;;7.73;100.00;100979.03;5228666;28;20643;-80
2023/10/18 03:15:58;;;;;;;8.93;6.67;;;;;;;7.43;100.00;100948.25;5227811;28;20033;-80
2023/10/18 03:18:30;;;;;;;10.20;7.50;;;;;;;7.21;100.00;100902.28;5228530;28;20026;-80
2023/10/18 03:21:09;;;;;;;10.70;7.47;;;;;;;7.29;100.00;100933.22;5228323;28;20052;-80
2023/10/18 03:23:46;;;;;;;8.70;6.80;;;;;;;7.25;100.00;100903.84;5229142;28;20031;-80
2023/10/18 03:26:37;;;;;;;10.53;7.23;;;;;;;7.24;100.00;100909.13;5228345;28;20030;-80
2023/10/18 03:29:11;;;;;;;9.50;6.20;;;;;;;7.23;100.00;100899.59;5227920;28;20497;-80
2023/10/18 03:31:44;;;;;;;11.13;7.65;;;;;;;7.22;100.00;100904.00;5227969;28;20082;-80
2023/10/18 03:34:18;;;;;;;10.53;6.77;;;;;;;7.11;100.00;100873.22;5242833;28;20033;-80
2023/10/18 03:36:49;;;;;;;11.35;7.15;;;;;;;7.24;100.00;100896.94;5228375;28;20037;-80
2023/10/18 03:39:25;;;;;;;11.97;6.50;;;;;;;7.57;100.00;100936.34;5227338;28;20417;-80
2023/10/18 03:42:00;;;;;;;11.67;6.00;;;;;;;7.26;100.00;100915.13;5228357;28;20269;-80
2023/10/18 03:44:32;;;;;;;9.37;6.47;;;;;;;7.21;100.00;100904.06;5228277;28;20021;-80
2023/10/18 03:47:03;;;;;;;10.03;7.33;;;;;;;7.24;100.00;100904.75;5226998;28;20505;-80
2023/10/18 03:49:36;;;;;;;13.43;7.70;;;;;;;7.23;100.00;100878.78;5228433;28;20114;-80
2023/10/18 03:55:04;;;;;;;8.87;7.03;;;;;;;7.45;100.00;100925.53;5228089;28;20026;-80
2023/10/18 03:57:39;;;;;;;9.27;6.27;;;;;;;7.39;100.00;100889.34;5227967;28;20049;-80
2023/10/18 04:02:56;;;;;;;8.30;6.03;;;;;;;7.39;100.00;100878.91;5227800;28;20025;-80
2023/10/18 04:05:40;;;;;;;11.50;6.90;;;;;;;7.33;100.00;100856.59;5242275;28;20021;-80
2023/10/18 04:08:19;;;;;;;10.43;6.43;;;;;;;7.47;100.00;100892.44;5227167;28;20021;-80
2023/10/18 04:10:58;;;;;;;11.50;7.63;;;;;;;7.24;100.00;100838.78;5226542;28;20472;-80
2023/10/18 04:13:35;;;;;;;12.20;6.93;;;;;;;7.32;100.00;100859.28;5226456;28;20247;-80
2023/10/18 04:16:11;;;;;;;9.63;6.27;;;;;;;7.46;100.00;100876.88;5226044;28;20481;-80
2023/10/18 04:18:42;;;;;;;8.40;6.57;;;;;;;7.26;100.00;100850.81;5227971;28;20434;-80
2023/10/18 04:21:15;;;;;;;11.27;7.00;;;;;;;7.42;100.00;100857.09;5225374;28;20040;-80
2023/10/18 04:23:49;;;;;;;9.83;6.50;;;;;;;7.33;100.00;100840.97;5227085;28;20045;-80
2023/10/18 04:26:21;;;;;;;9.70;7.13;;;;;;;7.26;100.00;100822.16;5226770;28;20574;-80
2023/10/18 04:29:01;;;;;;;10.13;6.40;;;;;;;7.11;100.00;100805.50;5227703;28;20049;-80
2023/10/18 04:31:32;;;;;;;13.13;7.17;;;;;;;7.54;100.00;100866.94;5226396;28;20567;-80
2023/10/18 04:34:04;;;;;;;11.10;6.33;;;;;;;7.19;100.00;100815.53;5225318;28;20116;-80
2023/10/18 04:36:35;;;;;;;11.17;6.33;;;;;;;7.38;100.00;100836.38;5226751;28;20021;-80
2023/10/18 04:39:10;;;;;;;7.73;6.13;;;;;;;7.61;100.00;100867.53;5227363;28;20154;-80
2023/10/18 04:41:44;;;;;;;11.73;6.67;;;;;;;7.41;100.00;100819.78;5227251;28;20028;-80
2023/10/18 04:44:18;;;;;;;8.77;6.27;;;;;;;7.56;100.00;100853.81;5226727;28;20052;-80
2023/10/18 04:46:52;;;;;;;;;;;;;;;7.97;100.00;100858.84;5227489;28;20111;-80
2023/10/18 04:49:36;;;;;;;11.53;6.23;;;;;;;7.33;100.00;100821.91;5224956;28;19967;-80
2023/10/18 04:52:08;;;;;;;9.10;6.13;;;;;;;7.33;100.00;100806.25;5227088;28;20048;-80
2023/10/18 04:54:43;;;;;;;12.17;6.13;;;;;;;7.54;100.00;100843.47;5226869;28;20124;-80
2023/10/18 04:57:15;;;;;;;9.85;6.80;;;;;;;7.36;100.00;100817.41;5226258;28;20026;-80
2023/10/18 04:59:47;;;;;;;10.80;6.73;;;;;;;7.40;100.00;100818.06;5240802;28;20040;-80
2023/10/18 05:02:25;;;;;;;11.53;6.40;;;;;;;7.41;100.00;100824.13;5226635;28;20021;-80
2023/10/18 05:04:57;;;;;;;7.43;6.40;;;;;;;7.61;100.00;100847.50;5226248;28;20021;-80
2023/10/18 05:07:47;;;;;;;7.90;5.80;;;;;;;7.19;100.00;100789.50;5226054;28;20431;-80
2023/10/18 05:10:20;;;;;;;12.60;6.87;;;;;;;7.34;100.00;100805.34;5227199;28;20060;-80
2023/10/18 05:13:01;;;;;;;14.80;6.30;;;;;;;7.05;100.00;100758.06;5226256;28;20111;-80
2023/10/18 05:15:33;;;;;;;9.73;7.00;;;;;;;7.17;100.00;100775.72;5225970;28;20487;-80
2023/10/18 05:18:05;;;;;;;12.00;6.47;;;;;;;7.20;100.00;100769.50;5225310;28;20018;-80
2023/10/18 05:23:22;;;;;;;11.83;6.97;;;;;;;7.31;100.00;100763.81;5226900;28;20291;-80
2023/10/18 05:28:47;;;;;;;13.30;6.77;;;;;;;7.53;100.00;100812.28;5230326;28;20588;-80
2023/10/18 05:34:47;;;;;;;9.73;6.73;;;;;;;7.34;100.00;100771.47;5186142;28;20074;-80
2023/10/18 05:37:19;;;;;;;15.47;8.23;;;;;;;7.29;100.00;100761.28;5228758;28;20382;-80
2023/10/18 05:40:41;;;;;;;11.93;7.10;;;;;;;7.31;100.00;100758.59;5231368;28;20120;-80
2023/10/18 05:42:46;;;;;;;13.80;7.77;;;;;;;7.37;100.00;100774.78;5230360;28;20524;-80
2023/10/18 05:45:17;;;;;;;12.37;7.30;;;;;;;7.44;100.00;100787.50;5228253;28;20044;-80
2023/10/18 05:47:54;;;;;;;13.43;7.17;;;;;;;7.11;100.00;100739.53;5230503;28;20035;-80
2023/10/18 05:50:25;;;;;;;15.93;7.63;;;;;;;7.41;100.00;100778.09;5228703;28;20705;-80
2023/10/18 05:53:00;;;;;;;15.60;7.30;;;;;;;7.16;100.00;100745.38;5230103;28;20108;-80
2023/10/18 05:55:32;;;;;;;;;;;;;;;8.01;100.00;100803.94;5230357;28;20057;-80
2023/10/18 05:58:05;;;;;;;11.07;7.10;;;;;;;7.27;100.00;100744.88;5230488;28;19912;-80
2023/10/18 06:00:36;;;;;;;12.57;7.20;;;;;;;7.14;100.00;100740.22;5244753;28;20025;-80
2023/10/18 06:03:09;;;;;;;12.47;7.00;;;;;;;7.15;100.00;100738.47;5228946;28;20022;-80
2023/10/18 06:05:43;;;;;;;9.17;6.67;;;;;;;7.36;100.00;100754.00;5229942;28;21071;-80
2023/10/18 06:08:14;;;;;;;11.13;6.82;;;;;;;7.36;100.00;100756.63;5229608;28;20103;-80
2023/10/18 06:10:49;;;;;;;10.67;7.50;;;;;;;7.39;100.00;100777.31;5229415;28;20033;-79
2023/10/18 06:13:26;;;;;;;10.60;6.85;;;;;;;7.56;100.00;100775.63;5229287;28;20037;-80
2023/10/18 06:16:02;;;;;;;8.77;6.73;;;;;;;7.50;100.00;100777.63;5229331;28;20535;-80
2023/10/18 06:18:37;;;;;;;12.97;7.77;;;;;;;7.22;100.00;100721.66;5229520;28;20320;-80
2023/10/18 06:21:13;;;;;;;9.90;7.27;;;;;;;7.17;100.00;100704.53;5229584;28;20024;-80
2023/10/18 06:23:56;;;;;;;11.80;6.63;;;;;;;7.21;100.00;100734.75;5228114;28;20020;-80
2023/10/18 06:26:28;;;;;;;13.50;6.87;;;;;;;7.29;100.00;100723.94;5229574;28;20147;-80
2023/10/18 06:29:11;;;;;;;9.57;6.90;;;;;;;7.64;100.00;100763.09;5228644;28;20163;-80
2023/10/18 06:31:43;;;;;;;14.03;7.40;;;;;;;7.26;100.00;100706.72;5228363;28;20017;-80
2023/10/18 06:34:18;;;;;;;13.40;6.77;;;;;;;7.20;100.00;100696.56;5228376;28;20264;-80
2023/10/18 06:36:52;;;;;;;16.33;6.40;;;;;;;7.27;100.00;100703.19;5244071;28;20022;-80
2023/10/18 06:39:34;;;;;;;13.90;7.03;;;;;;;7.56;100.00;100737.41;5228713;28;20025;-80
2023/10/18 06:42:12;;;;;;;7.57;6.23;;;;;;;7.37;100.00;100716.59;5229485;28;20092;-80
2023/10/18 06:44:44;;;;;;;11.80;7.93;;;;;;;7.33;100.00;100702.06;5228719;28;20025;-80
2023/10/18 06:47:15;;;;;;;19.77;7.47;;;;;;;7.40;100.00;100710.41;5228482;28;20552;-80
2023/10/18 06:49:48;;;;;;;11.17;7.00;;;;;;;7.36;100.00;100713.16;5228574;28;20548;-80
2023/10/18 06:52:21;;;;;;;10.33;6.60;;;;;;;7.52;100.00;100732.41;5229674;28;20108;-80
2023/10/18 06:54:54;;;;;;;15.07;7.07;;;;;;;7.35;100.00;100694.97;5228044;28;20064;-80
2023/10/18 06:57:35;;;;;;;14.32;6.82;;;;;;;7.62;100.00;100725.84;5228737;28;20316;-80
2023/10/18 07:00:11;;;;;;;10.60;6.90;;;;;;;7.58;100.00;100699.06;5227128;28;20525;-80
2023/10/18 07:02:44;;;;;;;11.63;6.50;;;;;;;7.35;100.00;100648.09;5228859;28;20400;-80
2023/10/18 07:05:16;;;;;;;10.80;6.53;;;;;;;7.44;100.00;100678.06;5228411;28;20071;-80
2023/10/18 07:07:47;;;;;;;12.03;7.40;;;;;;;7.58;100.00;100693.00;5228571;28;20029;-80
2023/10/18 07:10:53;;;;;;;9.47;6.47;;;;;;;7.41;100.00;100665.19;5228649;28;20056;-80
2023/10/18 07:13:14;;;;;;;9.32;6.45;;;;;;;7.72;100.00;100714.03;5228566;28;20053;-80
2023/10/18 07:15:45;;;;;;;11.97;6.40;;;;;;;7.35;100.00;100648.09;5226642;28;20119;-80
2023/10/18 07:18:20;;;;;;;10.70;6.17;;;;;;;7.61;100.00;100679.84;5228502;28;20528;-80
2023/10/18 07:20:52;;;;;;;11.87;6.57;;;;;;;7.56;100.00;100650.53;5228645;28;20477;-80
2023/10/18 07:23:26;;;;;;;13.10;7.43;;;;;;;7.68;100.00;100634.28;5242766;28;20032;-80
2023/10/18 07:25:59;;;;;;;;;;;;;;;8.47;100.00;100689.34;5229035;28;20525;-80
2023/10/18 07:28:35;;;;;;;11.47;6.90;;;;;;;7.75;100.00;100624.38;5228692;28;19909;-79
2023/10/18 07:31:10;;;;;;;19.03;7.03;;;;;;;7.95;100.00;100659.03;5227004;28;20025;-80
2023/10/18 07:33:41;;;;;;;9.37;5.93;;;;;;;7.92;100.00;100644.41;5227445;28;20049;-81
2023/10/18 07:36:13;;;;;;;9.47;6.10;;;;;;;8.03;100.00;100656.84;5228138;28;20214;-80
2023/10/18 07:38:47;;;;;;;10.40;7.13;;;;;;;8.21;100.00;100649.84;5227745;28;20029;-80
2023/10/18 07:41:18;;;;;;;10.70;6.32;;;;;;;8.11;100.00;100620.78;5227458;28;20032;-80
2023/10/18 07:43:50;;;;;;;11.10;6.33;;;;;;;8.25;100.00;100636.63;5227495;28;20021;-80
2023/10/18 07:46:24;;;;;;;9.77;6.30;;;;;;;8.30;100.00;100645.03;5226643;28;20030;-80
2023/10/18 07:49:04;;;;;;;10.40;7.03;;;;;;;8.26;100.00;100620.03;5227018;28;20041;-80
2023/10/18 07:51:43;;;;;;;11.10;6.70;;;;;;;8.50;100.00;100641.34;5227731;28;20401;-80
2023/10/18 07:54:20;;;;;;;10.63;6.93;;;;;;;8.36;100.00;100608.16;5227018;28;20107;-80
2023/10/18 07:56:54;;;;;;;11.07;7.43;;;;;;;8.63;100.00;100646.78;5243098;28;20021;-80
2023/10/18 07:59:28;;;;;;;11.23;6.32;;;;;;;8.51;100.00;100616.94;5231243;28;20022;-80
2023/10/18 08:02:12;;;;;;;11.07;6.30;;;;;;;8.41;100.00;100585.28;5236664;28;20116;-80
2023/10/18 08:04:44;;;;;;;9.32;6.40;;;;;;;8.48;100.00;100601.47;5230086;28;20481;-80
2023/10/18 08:07:20;;;;;;;9.77;6.50;;;;;;;8.54;100.00;100597.66;5234068;28;20029;-80
2023/10/18 08:09:54;;;;;;;8.97;5.53;;;;;;;8.70;100.00;100615.97;5233713;28;20112;-81
2023/10/18 08:14:57;;;;;;;10.77;6.90;;;;;;;9.02;100.00;100594.19;5226717;28;20040;-81
2023/10/18 08:26:12;;;;;;;12.20;6.63;;;;;;;9.62;100.00;100613.34;5218160;28;20142;-80
2023/10/18 08:28:46;;;;;;;11.03;5.90;;;;;;;9.51;100.00;100573.94;5226898;28;20029;-80
2023/10/18 08:31:33;;;;;;;8.40;5.35;;;;;;;9.77;100.00;100598.50;5226154;28;20099;-80
2023/10/18 08:34:05;;;;;;;9.80;6.33;;;;;;;9.41;100.00;100548.34;5227436;28;20033;-80
2023/10/18 08:36:38;;;;;;;12.40;6.53;;;;;;;9.87;100.00;100605.81;5226635;28;20025;-80
2023/10/18 08:39:11;;;;;;;13.30;6.17;;;;;;;9.89;100.00;100596.94;5225997;28;20087;-80
2023/10/18 08:41:54;;;;;;;11.30;6.27;;;;;;;9.99;100.00;100578.91;5227684;28;20021;-80
2023/10/18 08:44:27;;;;;;;13.33;6.83;;;;;;;9.96;100.00;100579.09;5225824;28;20028;-80
2023/10/18 08:49:53;;;;;;;12.10;6.87;;;;;;;10.07;100.00;100564.50;5227255;28;20083;-80
2023/10/18 08:52:28;;;;;;;11.37;6.37;;;;;;;10.21;100.00;100561.84;5226052;28;20017;-80
2023/10/18 08:57:56;;;;;;;10.47;6.37;;;;;;;11.27;100.00;100564.72;5227001;28;20545;-80
2023/10/18 09:03:01;;;;;;;9.07;5.70;;;;;;;12.00;93.85;100545.78;5233252;28;20037;-80
2023/10/18 09:05:35;;;;;;;9.37;5.77;;;;;;;12.92;88.92;100583.91;5233611;28;20047;-80
2023/10/18 09:08:08;;;;;;;8.63;5.57;;;;;;;13.12;82.79;100538.66;5232780;28;20025;-80
2023/10/18 09:10:47;;;;;;;9.30;5.33;;;;;;;13.39;78.65;100553.28;5232488;28;20034;-80
2023/10/18 09:15:55;;;;;;;9.07;5.40;;;;;;;14.09;81.73;100569.00;5232927;28;20472;-80
2023/10/18 09:18:27;;;;;;;10.10;5.00;;;;;;;14.41;75.65;100541.03;5231913;28;20405;-80
2023/10/18 09:21:07;;;;;;;8.67;4.70;;;;;;;14.41;67.31;100535.75;5248210;28;20045;-80
2023/10/18 09:23:42;;;;;;;9.60;5.13;;;;;;;14.53;63.88;100497.03;5232892;28;20142;-80
2023/10/18 09:26:26;;;;;;;7.07;5.03;;;;;;;14.88;64.24;100510.91;5231438;28;20021;-81
2023/10/18 09:29:02;;;;;;;10.87;4.57;;;;;;;15.63;62.86;100517.81;5232293;28;20116;-81
2023/10/18 09:31:34;;;;;;;15.83;5.43;;;;;;;15.56;60.56;100528.06;5234219;28;20028;-80
2023/10/18 09:34:08;;;;;;;7.77;4.57;;;;;;;16.03;53.53;100512.66;5235008;28;20489;-80
2023/10/18 09:36:52;;;;;;;11.05;5.10;;;;;;;16.01;59.08;100509.31;5235206;28;20018;-80
2023/10/18 09:39:37;;;;;;;7.55;4.60;;;;;;;16.20;55.42;100495.31;5232814;28;20033;-80
2023/10/18 09:42:17;;;;;;;7.50;4.53;;;;;;;15.84;52.36;100495.78;5232691;28;20028;-80
2023/10/18 09:44:50;;;;;;;8.10;3.93;;;;;;;15.89;55.97;100506.78;5232170;28;20033;-81
2023/10/18 09:47:26;;;;;;;9.40;4.77;;;;;;;15.85;54.44;100476.31;5233175;28;20087;-81
2023/10/18 09:50:06;;;;;;;8.63;4.40;;;;;;;15.69;54.75;100443.34;5233785;28;20029;-81
2023/10/18 09:52:47;;;;;;;9.60;4.60;;;;;;;14.93;56.67;100474.44;5248361;28;20033;-81
2023/10/18 09:55:20;;;;;;;9.97;4.63;;;;;;;15.18;57.75;100453.06;5233063;28;20029;-81
2023/10/18 09:58:14;;;;;;;11.90;5.00;;;;;;;15.28;60.57;100463.66;5233531;28;20067;-81
2023/10/18 10:00:56;;;;;;;8.00;4.23;;;;;;;15.48;57.63;100436.34;5232146;28;20060;-81
2023/10/18 10:03:30;;;;;;;11.30;4.27;;;;;;;14.86;63.19;100452.19;5248679;28;20532;-81
2023/10/18 10:06:03;;;;;;;5.85;4.35;;;;;;;14.70;66.87;100432.38;5232782;28;20057;-81
2023/10/18 10:08:36;;;;;;;10.50;5.10;;;;;;;14.89;63.73;100425.56;5232280;28;20484;-81
2023/10/18 10:11:19;;;;;;;8.30;4.47;;;;;;;15.07;62.67;100417.91;5229123;28;20032;-81
2023/10/18 10:13:51;;;;;;;10.47;4.60;;;;;;;14.70;65.47;100432.38;5229348;28;20017;-81
2023/10/18 10:16:24;;;;;;;11.23;4.80;;;;;;;14.81;69.01;100417.47;5229626;28;20091;-81
2023/10/18 10:19:02;;;;;;;13.13;5.07;;;;;;;14.83;69.34;100458.56;5227384;28;20052;-81
2023/10/18 10:21:35;;;;;;;7.63;4.90;;;;;;;14.67;70.07;100414.19;5230005;28;20452;-81
2023/10/18 10:27:27;;;;;;;8.03;5.23;;;;;;;14.97;69.45;100438.09;5229981;28;20072;-80
2023/10/18 10:32:58;;;;;;;10.87;5.40;;;;;;;14.49;74.86;100372.59;5229701;28;20369;-80
2023/10/18 10:35:32;;;;;;;9.87;5.77;;;;;;;14.69;74.38;100401.72;5229154;28;20081;-80
2023/10/18 10:38:13;;;;;;;8.80;4.55;;;;;;;14.64;76.37;100381.00;5229438;28;20244;-80
2023/10/18 10:41:19;;;;;;;9.03;5.73;;;;;;;14.59;74.51;100409.53;5228634;28;20530;-80
2023/10/18 10:44:07;;;;;;;7.43;5.17;;;;;;;14.85;79.29;100405.72;5227513;28;20025;-80
2023/10/18 10:46:39;;;;;;;6.35;5.20;;;;;;;14.60;74.35;100384.03;5229358;28;20045;-81
2023/10/18 10:49:59;;;;;;;7.93;4.93;;;;;;;14.95;77.65;100390.78;5229152;28;20151;-81
2023/10/18 10:52:30;;;;;;;8.10;4.60;;;;;;;14.72;78.98;100358.44;5229038;28;20057;-81
2023/10/18 10:55:21;;;;;;;8.63;5.60;;;;;;;14.84;78.99;100346.03;5228449;28;20475;-81
2023/10/18 10:57:53;;;;;;;6.27;4.53;;;;;;;14.83;73.17;100353.13;5229273;28;20033;-81
2023/10/18 11:00:37;;;;;;;9.53;5.07;;;;;;;14.84;74.39;100365.34;5227867;28;20025;-81
2023/10/18 11:03:27;;;;;;;12.43;5.27;;;;;;;15.24;75.16;100371.59;5229255;28;20540;-81
2023/10/18 11:05:59;;;;;;;8.13;4.90;;;;;;;14.67;77.59;100337.75;5227067;28;20028;-81
2023/10/18 11:08:36;;;;;;;9.40;5.17;;;;;;;14.66;75.24;100304.44;5228475;28;20260;-81
2023/10/18 11:11:07;;;;;;;7.93;5.20;;;;;;;14.92;70.38;100308.47;5229077;28;20026;-81
2023/10/18 11:13:41;;;;;;;8.83;5.47;;;;;;;15.12;77.71;100309.34;5226876;28;20477;-81
2023/10/18 11:16:15;;;;;;;9.77;5.00;;;;;;;15.22;69.48;100299.66;5228072;28;20373;-80
2023/10/18 11:18:52;;;;;;;8.02;5.75;;;;;;;15.34;69.90;100339.94;5229160;28;20029;-81
2023/10/18 11:21:29;;;;;;;8.87;4.67;;;;;;;15.06;66.91;100289.63;5227825;28;20032;-81
2023/10/18 11:24:10;;;;;;;7.10;5.40;;;;;;;15.33;67.46;100311.06;5227318;28;20029;-81
2023/10/18 11:26:42;;;;;;;8.53;5.20;;;;;;;15.03;77.54;100273.25;5229228;28;20026;-81
2023/10/18 11:29:13;;;;;;;6.70;5.00;;;;;;;15.13;67.81;100263.56;5227716;28;20031;-81
2023/10/18 11:31:44;;;;;;;11.17;5.97;;;;;;;15.12;76.68;100299.66;5227829;28;20377;-81
2023/10/18 11:34:21;;;;;;;8.30;4.90;;;;;;;14.92;75.71;100248.69;5228216;28;20029;-81
2023/10/18 11:36:55;;;;;;;11.20;6.60;;;;;;;15.08;70.66;100271.06;5227237;28;20524;-82
2023/10/18 11:39:32;;;;;;;9.27;5.30;;;;;;;15.02;68.97;100248.69;5228265;28;20060;-81
2023/10/18 11:42:06;;;;;;;7.97;5.40;;;;;;;14.87;70.50;100242.97;5227472;28;20392;-81
2023/10/18 11:44:39;;;;;;;8.23;4.90;;;;;;;15.09;70.77;100254.25;5227105;28;20033;-81
2023/10/18 11:47:19;;;;;;;7.50;4.83;;;;;;;15.34;68.30;100258.16;5226397;28;20036;-81
2023/10/18 11:49:53;;;;;;;10.93;5.17;;;;;;;15.06;75.03;100217.59;5228478;28;20036;-81
2023/10/18 11:52:26;;;;;;;8.00;5.45;;;;;;;15.15;74.13;100208.03;5227135;28;20052;-81
2023/10/18 11:55:10;;;;;;;6.80;4.60;;;;;;;15.66;68.52;100247.47;5227920;28;20021;-81
2023/10/18 11:57:46;;;;;;;8.27;5.40;;;;;;;15.27;74.15;100208.75;5227514;28;20029;-81
2023/10/18 12:02:55;;;;;;;8.73;5.47;;;;;;;15.38;68.85;100213.84;5227213;28;20036;-81
2023/10/18 12:05:29;;;;;;;8.07;5.43;;;;;;;15.26;69.29;100220.25;5227446;28;20078;-81
2023/10/18 12:08:05;;;;;;;9.18;4.75;;;;;;;15.19;72.60;100202.34;5227227;28;20152;-81
2023/10/18 12:10:37;;;;;;;8.37;5.07;;;;;;;15.31;72.62;100205.66;5226617;28;20516;-81
2023/10/18 12:13:14;;;;;;;7.90;4.87;;;;;;;15.27;76.12;100190.28;5241524;28;20132;-81
2023/10/18 12:15:47;;;;;;;7.53;4.50;;;;;;;15.55;68.86;100214.16;5227117;28;20033;-80
2023/10/18 12:18:21;;;;;;;9.17;4.30;;;;;;;15.22;74.63;100178.31;5226728;28;20652;-80
2023/10/18 12:20:54;;;;;;;8.27;5.47;;;;;;;15.27;71.10;100169.16;5228017;28;20075;-80
2023/10/18 12:23:26;;;;;;;12.40;4.17;;;;;;;15.16;67.27;100151.66;5227174;28;20017;-81
2023/10/18 12:26:05;;;;;;;7.60;4.33;;;;;;;15.26;69.31;100172.75;5227702;28;20079;-80
2023/10/18 12:28:37;;;;;;;5.40;4.13;;;;;;;15.27;71.97;100185.00;5225904;28;20029;-80
2023/10/18 12:31:16;;;;;;;7.63;4.23;;;;;;;15.18;67.56;100158.50;5227497;28;20504;-81
2023/10/18 12:33:51;;;;;;;12.10;4.70;;;;;;;15.34;67.44;100162.38;5226661;28;20045;-81
2023/10/18 12:36:22;;;;;;;7.33;4.83;;;;;;;15.32;66.80;100143.19;5242383;28;20041;-81
2023/10/18 12:38:58;;;;;;;6.47;4.83;;;;;;;15.41;68.69;100163.44;5226878;28;20021;-81
2023/10/18 12:41:32;;;;;;;11.10;4.10;;;;;;;15.31;74.28;100130.97;5227181;28;20065;-81
2023/10/18 12:44:04;;;;;;;10.98;4.43;;;;;;;15.36;67.53;100105.84;5226018;28;20045;-81
2023/10/18 12:46:35;;;;;;;8.73;4.80;;;;;;;15.33;68.17;100097.38;5225990;28;20064;-80
2023/10/18 12:49:10;;;;;;;8.27;3.90;;;;;;;15.64;67.67;100113.00;5227512;28;20048;-81
2023/10/18 12:51:42;;;;;;;10.37;4.93;;;;;;;15.40;68.99;100090.56;5226761;28;20029;-81
2023/10/18 12:54:19;;;;;;;10.93;4.30;;;;;;;15.20;67.37;100073.94;5226237;28;20036;-81
2023/10/18 13:00:13;;;;;;;10.50;4.50;;;;;;;15.19;66.29;100051.16;5224553;28;20120;-80
2023/10/18 13:02:51;;;;;;;7.53;3.90;;;;;;;15.22;69.97;100062.25;5236862;28;20469;-80
2023/10/18 13:05:22;;;;;;;12.37;4.37;;;;;;;15.24;67.40;100055.03;5239120;28;20005;-80